sensor_id;sensor_type;location;lat;lon;timestamp;temperature;humidity
13610;DHT22;6876;50.788;4.940;2023-02-15T00:00:44;2.70;1.00
13610;DHT22;6876;50.788;4.940;2023-02-15T00:03:32;2.90;1.00
13610;DHT22;6876;50.788;4.940;2023-02-15T00:06:19;3.00;1.00
13610;DHT22;6876;50.788;4.940;2023-02-15T00:09:07;3.00;1.00
13610;DHT22;6876;50.788;4.940;2023-02-15T00:11:55;2.90;1.00
13610;DHT22;6876;50.788;4.940;2023-02-15T00:14:42;2.90;99.90
13610;DHT22;6876;50.788;4.940;2023-02-15T00:17:31;2.80;99.90
13610;DHT22;6876;50.788;4.940;2023-02-15T00:20:18;2.70;99.90
13610;DHT22;6876;50.788;4.940;2023-02-15T00:23:06;2.60;99.90
13610;DHT22;6876;50.788;4.940;2023-02-15T00:26:03;2.50;99.90
13610;DHT22;6876;50.788;4.940;2023-02-15T00:28:51;2.70;99.90
13610;DHT22;6876;50.788;4.940;2023-02-15T00:31:38;2.70;99.90
13610;DHT22;6876;50.788;4.940;2023-02-15T00:34:27;2.50;99.90
13610;DHT22;6876;50.788;4.940;2023-02-15T00:37:14;2.50;99.90
13610;DHT22;6876;50.788;4.940;2023-02-15T00:40:03;2.60;99.90
13610;DHT22;6876;50.788;4.940;2023-02-15T00:42:50;2.70;99.90
13610;DHT22;6876;50.788;4.940;2023-02-15T00:45:37;2.60;99.90
13610;DHT22;6876;50.788;4.940;2023-02-15T00:48:26;2.70;99.90
13610;DHT22;6876;50.788;4.940;2023-02-15T00:51:15;2.70;99.90
13610;DHT22;6876;50.788;4.940;2023-02-15T00:54:04;2.80;99.90
13610;DHT22;6876;50.788;4.940;2023-02-15T00:56:51;2.90;99.90
13610;DHT22;6876;50.788;4.940;2023-02-15T00:59:38;2.90;99.90
13610;DHT22;6876;50.788;4.940;2023-02-15T01:02:26;2.90;99.90
13610;DHT22;6876;50.788;4.940;2023-02-15T01:05:14;2.70;99.90
13610;DHT22;6876;50.788;4.940;2023-02-15T01:08:05;2.70;99.90
13610;DHT22;6876;50.788;4.940;2023-02-15T01:10:52;2.60;99.90
13610;DHT22;6876;50.788;4.940;2023-02-15T01:13:41;2.50;99.90
13610;DHT22;6876;50.788;4.940;2023-02-15T01:16:28;2.50;99.90
13610;DHT22;6876;50.788;4.940;2023-02-15T01:19:16;2.40;99.90
13610;DHT22;6876;50.788;4.940;2023-02-15T01:22:04;2.30;99.90
13610;DHT22;6876;50.788;4.940;2023-02-15T01:24:53;2.10;99.90
13610;DHT22;6876;50.788;4.940;2023-02-15T01:27:40;2.10;99.90
13610;DHT22;6876;50.788;4.940;2023-02-15T01:30:28;2.20;99.90
13610;DHT22;6876;50.788;4.940;2023-02-15T01:33:16;2.20;99.90
13610;DHT22;6876;50.788;4.940;2023-02-15T01:36:04;2.20;99.90
13610;DHT22;6876;50.788;4.940;2023-02-15T01:38:52;2.10;99.90
13610;DHT22;6876;50.788;4.940;2023-02-15T01:41:41;2.20;99.90
13610;DHT22;6876;50.788;4.940;2023-02-15T01:44:49;2.30;99.90
13610;DHT22;6876;50.788;4.940;2023-02-15T01:47:41;2.20;99.90
13610;DHT22;6876;50.788;4.940;2023-02-15T01:50:31;2.10;99.90
13610;DHT22;6876;50.788;4.940;2023-02-15T01:53:23;2.00;99.90
13610;DHT22;6876;50.788;4.940;2023-02-15T01:56:13;2.00;99.90
13610;DHT22;6876;50.788;4.940;2023-02-15T01:59:07;2.10;99.90
13610;DHT22;6876;50.788;4.940;2023-02-15T02:01:58;2.30;99.90
13610;DHT22;6876;50.788;4.940;2023-02-15T02:04:48;2.30;99.90
13610;DHT22;6876;50.788;4.940;2023-02-15T02:07:38;2.30;99.90
13610;DHT22;6876;50.788;4.940;2023-02-15T02:10:26;2.30;99.90
13610;DHT22;6876;50.788;4.940;2023-02-15T02:13:14;2.30;99.90
13610;DHT22;6876;50.788;4.940;2023-02-15T02:16:09;2.30;99.90
13610;DHT22;6876;50.788;4.940;2023-02-15T02:19:19;2.20;99.90
13610;DHT22;6876;50.788;4.940;2023-02-15T02:22:54;2.00;99.90
13610;DHT22;6876;50.788;4.940;2023-02-15T02:26:22;2.00;99.90
13610;DHT22;6876;50.788;4.940;2023-02-15T02:29:55;2.00;99.90
13610;DHT22;6876;50.788;4.940;2023-02-15T02:36:17;1.90;99.90
13610;DHT22;6876;50.788;4.940;2023-02-15T02:39:13;1.70;99.90
13610;DHT22;6876;50.788;4.940;2023-02-15T02:42:06;1.60;99.90
13610;DHT22;6876;50.788;4.940;2023-02-15T02:45:00;1.80;99.90
13610;DHT22;6876;50.788;4.940;2023-02-15T02:47:52;1.70;99.90
13610;DHT22;6876;50.788;4.940;2023-02-15T02:50:41;1.90;99.90
13610;DHT22;6876;50.788;4.940;2023-02-15T02:53:31;1.80;99.90
13610;DHT22;6876;50.788;4.940;2023-02-15T02:56:24;1.70;99.90
13610;DHT22;6876;50.788;4.940;2023-02-15T02:59:17;1.70;99.90
13610;DHT22;6876;50.788;4.940;2023-02-15T03:02:10;1.60;99.90
13610;DHT22;6876;50.788;4.940;2023-02-15T03:05:03;1.60;99.90
13610;DHT22;6876;50.788;4.940;2023-02-15T03:07:53;1.50;99.90
13610;DHT22;6876;50.788;4.940;2023-02-15T03:10:44;1.30;99.90
13610;DHT22;6876;50.788;4.940;2023-02-15T03:13:32;1.40;99.90
13610;DHT22;6876;50.788;4.940;2023-02-15T03:16:20;1.40;99.90
13610;DHT22;6876;50.788;4.940;2023-02-15T03:19:16;1.20;99.90
13610;DHT22;6876;50.788;4.940;2023-02-15T03:22:07;1.40;99.90
13610;DHT22;6876;50.788;4.940;2023-02-15T03:24:57;1.40;99.90
13610;DHT22;6876;50.788;4.940;2023-02-15T03:27:49;1.30;99.90
13610;DHT22;6876;50.788;4.940;2023-02-15T03:30:42;1.30;99.90
13610;DHT22;6876;50.788;4.940;2023-02-15T03:33:29;1.20;99.90
13610;DHT22;6876;50.788;4.940;2023-02-15T03:36:21;1.00;99.90
13610;DHT22;6876;50.788;4.940;2023-02-15T03:39:15;0.90;99.90
13610;DHT22;6876;50.788;4.940;2023-02-15T03:42:08;1.00;99.90
13610;DHT22;6876;50.788;4.940;2023-02-15T03:45:02;1.00;99.90
13610;DHT22;6876;50.788;4.940;2023-02-15T03:47:52;1.00;99.90
13610;DHT22;6876;50.788;4.940;2023-02-15T03:50:41;1.00;99.90
13610;DHT22;6876;50.788;4.940;2023-02-15T03:53:47;0.90;99.90
13610;DHT22;6876;50.788;4.940;2023-02-15T03:56:36;1.10;99.90
13610;DHT22;6876;50.788;4.940;2023-02-15T03:59:24;1.30;99.90
13610;DHT22;6876;50.788;4.940;2023-02-15T04:02:34;1.40;99.90
13610;DHT22;6876;50.788;4.940;2023-02-15T04:05:24;1.30;99.90
13610;DHT22;6876;50.788;4.940;2023-02-15T04:08:12;1.20;99.90
13610;DHT22;6876;50.788;4.940;2023-02-15T04:10:59;1.00;99.90
13610;DHT22;6876;50.788;4.940;2023-02-15T04:13:46;0.90;99.90
13610;DHT22;6876;50.788;4.940;2023-02-15T04:16:33;0.70;99.90
13610;DHT22;6876;50.788;4.940;2023-02-15T04:19:21;0.60;99.90
13610;DHT22;6876;50.788;4.940;2023-02-15T04:22:25;0.60;99.90
13610;DHT22;6876;50.788;4.940;2023-02-15T04:25:30;0.50;99.90
13610;DHT22;6876;50.788;4.940;2023-02-15T04:28:18;0.50;99.90
13610;DHT22;6876;50.788;4.940;2023-02-15T04:31:05;0.40;99.90
13610;DHT22;6876;50.788;4.940;2023-02-15T04:33:52;0.40;99.90
13610;DHT22;6876;50.788;4.940;2023-02-15T04:36:41;0.50;99.90
13610;DHT22;6876;50.788;4.940;2023-02-15T04:39:29;0.50;99.90
13610;DHT22;6876;50.788;4.940;2023-02-15T04:42:17;0.60;99.90
13610;DHT22;6876;50.788;4.940;2023-02-15T04:45:05;0.50;99.90
13610;DHT22;6876;50.788;4.940;2023-02-15T04:47:52;0.50;99.90
13610;DHT22;6876;50.788;4.940;2023-02-15T04:50:40;0.50;99.90
13610;DHT22;6876;50.788;4.940;2023-02-15T04:53:28;0.30;99.90
13610;DHT22;6876;50.788;4.940;2023-02-15T04:56:15;0.20;99.90
13610;DHT22;6876;50.788;4.940;2023-02-15T04:59:03;0.20;99.90
13610;DHT22;6876;50.788;4.940;2023-02-15T05:01:50;0.20;99.90
13610;DHT22;6876;50.788;4.940;2023-02-15T05:04:37;0.10;99.90
13610;DHT22;6876;50.788;4.940;2023-02-15T05:07:25;0.10;99.90
13610;DHT22;6876;50.788;4.940;2023-02-15T05:10:13;0.10;99.90
13610;DHT22;6876;50.788;4.940;2023-02-15T05:13:01;0.20;99.90
13610;DHT22;6876;50.788;4.940;2023-02-15T05:15:48;0.20;99.90
13610;DHT22;6876;50.788;4.940;2023-02-15T05:18:36;0.20;99.90
13610;DHT22;6876;50.788;4.940;2023-02-15T05:21:23;0.20;99.90
13610;DHT22;6876;50.788;4.940;2023-02-15T05:24:10;0.30;99.90
13610;DHT22;6876;50.788;4.940;2023-02-15T05:27:16;0.40;99.90
13610;DHT22;6876;50.788;4.940;2023-02-15T05:30:21;0.40;99.90
13610;DHT22;6876;50.788;4.940;2023-02-15T05:33:08;0.30;99.90
13610;DHT22;6876;50.788;4.940;2023-02-15T05:35:55;0.40;99.90
13610;DHT22;6876;50.788;4.940;2023-02-15T05:38:43;0.40;99.90
13610;DHT22;6876;50.788;4.940;2023-02-15T05:41:33;0.40;99.90
13610;DHT22;6876;50.788;4.940;2023-02-15T05:44:21;0.40;99.90
13610;DHT22;6876;50.788;4.940;2023-02-15T05:47:09;0.60;99.90
13610;DHT22;6876;50.788;4.940;2023-02-15T05:49:56;0.60;99.90
13610;DHT22;6876;50.788;4.940;2023-02-15T05:52:43;0.60;99.90
13610;DHT22;6876;50.788;4.940;2023-02-15T05:55:31;0.50;99.90
13610;DHT22;6876;50.788;4.940;2023-02-15T05:58:18;0.50;99.90
13610;DHT22;6876;50.788;4.940;2023-02-15T06:01:12;0.30;99.90
13610;DHT22;6876;50.788;4.940;2023-02-15T06:04:00;0.50;99.90
13610;DHT22;6876;50.788;4.940;2023-02-15T06:06:47;0.50;99.90
13610;DHT22;6876;50.788;4.940;2023-02-15T06:09:36;0.50;99.90
13610;DHT22;6876;50.788;4.940;2023-02-15T06:12:23;0.50;99.90
13610;DHT22;6876;50.788;4.940;2023-02-15T06:15:11;0.50;99.90
13610;DHT22;6876;50.788;4.940;2023-02-15T06:18:01;0.50;99.90
13610;DHT22;6876;50.788;4.940;2023-02-15T06:20:48;0.40;99.90
13610;DHT22;6876;50.788;4.940;2023-02-15T06:23:36;0.30;99.90
13610;DHT22;6876;50.788;4.940;2023-02-15T06:26:23;0.30;99.90
13610;DHT22;6876;50.788;4.940;2023-02-15T06:29:11;0.20;99.90
13610;DHT22;6876;50.788;4.940;2023-02-15T06:32:02;0.20;99.90
13610;DHT22;6876;50.788;4.940;2023-02-15T06:34:53;0.20;99.90
13610;DHT22;6876;50.788;4.940;2023-02-15T06:37:40;0.20;99.90
13610;DHT22;6876;50.788;4.940;2023-02-15T06:40:28;0.20;99.90
13610;DHT22;6876;50.788;4.940;2023-02-15T06:43:15;0.00;99.90
13610;DHT22;6876;50.788;4.940;2023-02-15T06:46:02;-0.10;99.90
13610;DHT22;6876;50.788;4.940;2023-02-15T06:48:50;0.00;99.90
13610;DHT22;6876;50.788;4.940;2023-02-15T06:51:38;0.10;99.90
13610;DHT22;6876;50.788;4.940;2023-02-15T06:54:26;0.10;99.90
13610;DHT22;6876;50.788;4.940;2023-02-15T06:57:13;0.10;99.90
13610;DHT22;6876;50.788;4.940;2023-02-15T07:00:00;0.10;99.90
13610;DHT22;6876;50.788;4.940;2023-02-15T07:02:48;0.10;99.90
13610;DHT22;6876;50.788;4.940;2023-02-15T07:05:35;0.20;99.90
13610;DHT22;6876;50.788;4.940;2023-02-15T07:08:24;0.10;99.90
13610;DHT22;6876;50.788;4.940;2023-02-15T07:11:12;0.20;99.90
13610;DHT22;6876;50.788;4.940;2023-02-15T07:14:16;0.30;99.90
13610;DHT22;6876;50.788;4.940;2023-02-15T07:17:04;0.40;99.90
13610;DHT22;6876;50.788;4.940;2023-02-15T07:19:51;0.50;99.90
13610;DHT22;6876;50.788;4.940;2023-02-15T07:22:38;0.60;99.90
13610;DHT22;6876;50.788;4.940;2023-02-15T07:25:27;0.80;99.90
13610;DHT22;6876;50.788;4.940;2023-02-15T07:28:14;0.90;99.90
13610;DHT22;6876;50.788;4.940;2023-02-15T07:31:03;1.00;99.90
13610;DHT22;6876;50.788;4.940;2023-02-15T07:33:50;1.00;99.90
13610;DHT22;6876;50.788;4.940;2023-02-15T07:36:37;1.20;99.90
13610;DHT22;6876;50.788;4.940;2023-02-15T07:39:25;1.30;99.90
13610;DHT22;6876;50.788;4.940;2023-02-15T07:42:13;1.40;99.90
13610;DHT22;6876;50.788;4.940;2023-02-15T07:45:01;1.60;99.90
13610;DHT22;6876;50.788;4.940;2023-02-15T07:47:48;1.70;99.90
13610;DHT22;6876;50.788;4.940;2023-02-15T07:50:35;1.80;99.90
13610;DHT22;6876;50.788;4.940;2023-02-15T07:53:23;1.90;99.90
13610;DHT22;6876;50.788;4.940;2023-02-15T07:56:11;1.90;99.90
13610;DHT22;6876;50.788;4.940;2023-02-15T07:59:01;2.10;99.90
13610;DHT22;6876;50.788;4.940;2023-02-15T08:01:49;2.40;99.90
13610;DHT22;6876;50.788;4.940;2023-02-15T08:04:37;3.30;99.90
13610;DHT22;6876;50.788;4.940;2023-02-15T08:07:25;4.30;99.90
13610;DHT22;6876;50.788;4.940;2023-02-15T08:10:12;4.90;99.90
13610;DHT22;6876;50.788;4.940;2023-02-15T08:13:19;5.50;99.90
13610;DHT22;6876;50.788;4.940;2023-02-15T08:16:08;5.70;99.90
13610;DHT22;6876;50.788;4.940;2023-02-15T08:18:57;6.00;99.90
13610;DHT22;6876;50.788;4.940;2023-02-15T08:21:45;6.20;99.90
13610;DHT22;6876;50.788;4.940;2023-02-15T08:24:36;6.00;99.90
13610;DHT22;6876;50.788;4.940;2023-02-15T08:27:23;6.20;99.90
13610;DHT22;6876;50.788;4.940;2023-02-15T08:30:13;7.00;99.90
13610;DHT22;6876;50.788;4.940;2023-02-15T08:33:02;8.30;99.90
13610;DHT22;6876;50.788;4.940;2023-02-15T08:35:50;9.30;99.90
13610;DHT22;6876;50.788;4.940;2023-02-15T08:38:37;10.40;99.90
13610;DHT22;6876;50.788;4.940;2023-02-15T08:41:27;11.30;99.90
13610;DHT22;6876;50.788;4.940;2023-02-15T08:44:16;11.70;99.90
13610;DHT22;6876;50.788;4.940;2023-02-15T08:47:04;12.20;99.90
13610;DHT22;6876;50.788;4.940;2023-02-15T08:49:52;12.40;99.90
13610;DHT22;6876;50.788;4.940;2023-02-15T08:52:41;12.80;99.90
13610;DHT22;6876;50.788;4.940;2023-02-15T08:55:29;13.30;99.90
13610;DHT22;6876;50.788;4.940;2023-02-15T08:58:16;13.90;99.90
13610;DHT22;6876;50.788;4.940;2023-02-15T09:01:09;14.00;99.90
13610;DHT22;6876;50.788;4.940;2023-02-15T09:03:59;14.10;99.90
13610;DHT22;6876;50.788;4.940;2023-02-15T09:06:48;15.00;99.90
13610;DHT22;6876;50.788;4.940;2023-02-15T09:09:36;15.70;99.90
13610;DHT22;6876;50.788;4.940;2023-02-15T09:12:23;15.90;99.90
13610;DHT22;6876;50.788;4.940;2023-02-15T09:15:11;16.90;99.90
13610;DHT22;6876;50.788;4.940;2023-02-15T09:17:58;17.50;99.90
13610;DHT22;6876;50.788;4.940;2023-02-15T09:20:47;17.80;99.90
13610;DHT22;6876;50.788;4.940;2023-02-15T09:23:36;17.80;99.90
13610;DHT22;6876;50.788;4.940;2023-02-15T09:26:24;17.30;99.90
13610;DHT22;6876;50.788;4.940;2023-02-15T09:29:12;17.00;99.90
13610;DHT22;6876;50.788;4.940;2023-02-15T09:32:00;17.00;99.90
13610;DHT22;6876;50.788;4.940;2023-02-15T09:34:47;17.60;99.90
13610;DHT22;6876;50.788;4.940;2023-02-15T09:37:35;18.30;99.90
13610;DHT22;6876;50.788;4.940;2023-02-15T09:40:23;18.50;99.90
13610;DHT22;6876;50.788;4.940;2023-02-15T09:43:22;18.40;99.90
13610;DHT22;6876;50.788;4.940;2023-02-15T09:46:27;18.50;99.90
13610;DHT22;6876;50.788;4.940;2023-02-15T09:49:26;18.80;99.90
13610;DHT22;6876;50.788;4.940;2023-02-15T09:52:26;18.80;99.70
13610;DHT22;6876;50.788;4.940;2023-02-15T09:55:29;18.80;99.50
13610;DHT22;6876;50.788;4.940;2023-02-15T09:58:25;19.30;98.50
13610;DHT22;6876;50.788;4.940;2023-02-15T10:01:20;19.60;98.00
13610;DHT22;6876;50.788;4.940;2023-02-15T10:04:38;19.60;97.80
13610;DHT22;6876;50.788;4.940;2023-02-15T10:07:50;20.00;97.50
13610;DHT22;6876;50.788;4.940;2023-02-15T10:10:47;19.40;98.80
13610;DHT22;6876;50.788;4.940;2023-02-15T10:13:42;19.90;97.90
13610;DHT22;6876;50.788;4.940;2023-02-15T10:16:37;19.20;97.60
13610;DHT22;6876;50.788;4.940;2023-02-15T10:19:33;17.90;99.50
13610;DHT22;6876;50.788;4.940;2023-02-15T10:22:35;18.20;99.90
13610;DHT22;6876;50.788;4.940;2023-02-15T10:25:31;19.40;99.20
13610;DHT22;6876;50.788;4.940;2023-02-15T10:28:31;20.70;97.90
13610;DHT22;6876;50.788;4.940;2023-02-15T10:31:24;20.70;95.70
13610;DHT22;6876;50.788;4.940;2023-02-15T10:34:16;19.70;96.50
13610;DHT22;6876;50.788;4.940;2023-02-15T10:37:41;19.30;96.90
13610;DHT22;6876;50.788;4.940;2023-02-15T10:40:35;18.90;97.60
13610;DHT22;6876;50.788;4.940;2023-02-15T10:43:48;19.10;97.90
13610;DHT22;6876;50.788;4.940;2023-02-15T10:46:49;18.80;98.30
13610;DHT22;6876;50.788;4.940;2023-02-15T10:49:53;18.40;99.90
13610;DHT22;6876;50.788;4.940;2023-02-15T10:52:58;17.80;99.90
13610;DHT22;6876;50.788;4.940;2023-02-15T10:55:54;17.10;99.90
13610;DHT22;6876;50.788;4.940;2023-02-15T11:02:13;16.10;99.90
13610;DHT22;6876;50.788;4.940;2023-02-15T11:05:19;15.50;99.90
13610;DHT22;6876;50.788;4.940;2023-02-15T11:08:12;15.10;99.90
13610;DHT22;6876;50.788;4.940;2023-02-15T11:11:02;14.90;99.90
13610;DHT22;6876;50.788;4.940;2023-02-15T11:13:56;14.90;99.90
13610;DHT22;6876;50.788;4.940;2023-02-15T11:16:45;14.70;99.90
13610;DHT22;6876;50.788;4.940;2023-02-15T11:19:35;14.60;99.90
13610;DHT22;6876;50.788;4.940;2023-02-15T11:22:24;14.40;99.90
13610;DHT22;6876;50.788;4.940;2023-02-15T11:25:17;14.10;99.90
13610;DHT22;6876;50.788;4.940;2023-02-15T11:28:10;13.80;99.90
13610;DHT22;6876;50.788;4.940;2023-02-15T11:31:13;13.60;99.90
13610;DHT22;6876;50.788;4.940;2023-02-15T11:34:06;13.70;99.90
13610;DHT22;6876;50.788;4.940;2023-02-15T11:37:01;13.80;99.90
13610;DHT22;6876;50.788;4.940;2023-02-15T11:39:52;13.90;99.90
13610;DHT22;6876;50.788;4.940;2023-02-15T11:42:40;14.00;99.90
13610;DHT22;6876;50.788;4.940;2023-02-15T11:45:29;14.00;99.90
13610;DHT22;6876;50.788;4.940;2023-02-15T11:48:19;13.90;99.90
13610;DHT22;6876;50.788;4.940;2023-02-15T11:51:09;13.90;99.90
13610;DHT22;6876;50.788;4.940;2023-02-15T11:53:59;13.90;99.90
13610;DHT22;6876;50.788;4.940;2023-02-15T11:56:46;13.80;99.90
13610;DHT22;6876;50.788;4.940;2023-02-15T11:59:36;13.70;99.90
13610;DHT22;6876;50.788;4.940;2023-02-15T12:02:24;13.60;99.90
13610;DHT22;6876;50.788;4.940;2023-02-15T12:05:19;13.50;99.90
13610;DHT22;6876;50.788;4.940;2023-02-15T12:08:16;13.50;99.90
13610;DHT22;6876;50.788;4.940;2023-02-15T12:11:09;13.60;99.90
13610;DHT22;6876;50.788;4.940;2023-02-15T12:14:00;13.70;99.90
13610;DHT22;6876;50.788;4.940;2023-02-15T12:16:51;13.60;99.90
13610;DHT22;6876;50.788;4.940;2023-02-15T12:19:40;13.70;99.90
13610;DHT22;6876;50.788;4.940;2023-02-15T12:22:31;13.70;99.90
13610;DHT22;6876;50.788;4.940;2023-02-15T12:25:22;13.60;99.90
13610;DHT22;6876;50.788;4.940;2023-02-15T12:28:23;13.40;99.90
13610;DHT22;6876;50.788;4.940;2023-02-15T12:31:21;13.30;99.90
13610;DHT22;6876;50.788;4.940;2023-02-15T12:34:12;13.30;99.90
13610;DHT22;6876;50.788;4.940;2023-02-15T12:37:09;13.30;99.90
13610;DHT22;6876;50.788;4.940;2023-02-15T12:40:00;13.20;99.90
13610;DHT22;6876;50.788;4.940;2023-02-15T12:42:48;13.30;99.90
13610;DHT22;6876;50.788;4.940;2023-02-15T12:45:37;13.30;99.90
13610;DHT22;6876;50.788;4.940;2023-02-15T12:48:24;13.30;99.90
13610;DHT22;6876;50.788;4.940;2023-02-15T12:51:14;13.30;99.90
13610;DHT22;6876;50.788;4.940;2023-02-15T12:54:35;13.30;99.90
13610;DHT22;6876;50.788;4.940;2023-02-15T12:57:28;13.30;99.90
13610;DHT22;6876;50.788;4.940;2023-02-15T13:00:27;13.30;99.90
13610;DHT22;6876;50.788;4.940;2023-02-15T13:03:20;13.30;99.90
13610;DHT22;6876;50.788;4.940;2023-02-15T13:06:09;13.20;99.90
13610;DHT22;6876;50.788;4.940;2023-02-15T13:08:58;13.20;99.90
13610;DHT22;6876;50.788;4.940;2023-02-15T13:11:52;13.20;99.90
13610;DHT22;6876;50.788;4.940;2023-02-15T13:14:44;13.30;99.90
13610;DHT22;6876;50.788;4.940;2023-02-15T13:17:33;13.30;99.90
13610;DHT22;6876;50.788;4.940;2023-02-15T13:20:21;13.30;99.90
13610;DHT22;6876;50.788;4.940;2023-02-15T13:23:24;13.30;99.90
13610;DHT22;6876;50.788;4.940;2023-02-15T13:26:16;13.40;99.90
13610;DHT22;6876;50.788;4.940;2023-02-15T13:29:07;13.40;99.90
13610;DHT22;6876;50.788;4.940;2023-02-15T13:31:59;13.50;99.90
13610;DHT22;6876;50.788;4.940;2023-02-15T13:34:48;13.30;99.90
13610;DHT22;6876;50.788;4.940;2023-02-15T13:37:54;13.30;99.90
13610;DHT22;6876;50.788;4.940;2023-02-15T13:40:48;13.30;99.90
13610;DHT22;6876;50.788;4.940;2023-02-15T13:43:46;13.30;99.90
13610;DHT22;6876;50.788;4.940;2023-02-15T13:46:51;13.40;99.90
13610;DHT22;6876;50.788;4.940;2023-02-15T13:50:03;13.50;99.90
13610;DHT22;6876;50.788;4.940;2023-02-15T13:53:07;13.50;99.90
13610;DHT22;6876;50.788;4.940;2023-02-15T13:56:02;13.50;99.90
13610;DHT22;6876;50.788;4.940;2023-02-15T13:59:10;13.60;99.90
13610;DHT22;6876;50.788;4.940;2023-02-15T14:02:29;13.50;99.90
13610;DHT22;6876;50.788;4.940;2023-02-15T14:05:40;13.60;99.90
13610;DHT22;6876;50.788;4.940;2023-02-15T14:08:43;13.60;99.90
13610;DHT22;6876;50.788;4.940;2023-02-15T14:11:39;13.60;99.90
13610;DHT22;6876;50.788;4.940;2023-02-15T14:14:44;13.60;99.90
13610;DHT22;6876;50.788;4.940;2023-02-15T14:17:46;13.60;99.90
13610;DHT22;6876;50.788;4.940;2023-02-15T14:20:56;13.60;99.90
13610;DHT22;6876;50.788;4.940;2023-02-15T14:23:56;13.60;99.90
13610;DHT22;6876;50.788;4.940;2023-02-15T14:26:50;13.60;99.90
13610;DHT22;6876;50.788;4.940;2023-02-15T14:29:51;13.50;99.90
13610;DHT22;6876;50.788;4.940;2023-02-15T14:32:43;13.50;99.90
13610;DHT22;6876;50.788;4.940;2023-02-15T14:35:32;13.50;99.90
13610;DHT22;6876;50.788;4.940;2023-02-15T14:38:27;13.50;99.90
13610;DHT22;6876;50.788;4.940;2023-02-15T14:41:23;13.40;99.90
13610;DHT22;6876;50.788;4.940;2023-02-15T14:44:18;13.30;99.90
13610;DHT22;6876;50.788;4.940;2023-02-15T14:47:12;13.30;99.90
13610;DHT22;6876;50.788;4.940;2023-02-15T14:50:36;13.20;99.90
13610;DHT22;6876;50.788;4.940;2023-02-15T14:53:36;13.10;99.90
13610;DHT22;6876;50.788;4.940;2023-02-15T14:56:25;13.00;99.90
13610;DHT22;6876;50.788;4.940;2023-02-15T14:59:16;12.90;99.90
13610;DHT22;6876;50.788;4.940;2023-02-15T15:02:16;12.90;99.90
13610;DHT22;6876;50.788;4.940;2023-02-15T15:05:07;12.90;99.90
13610;DHT22;6876;50.788;4.940;2023-02-15T15:07:57;12.90;99.90
13610;DHT22;6876;50.788;4.940;2023-02-15T15:10:47;12.90;99.90
13610;DHT22;6876;50.788;4.940;2023-02-15T15:13:39;12.80;99.90
13610;DHT22;6876;50.788;4.940;2023-02-15T15:16:49;12.80;99.90
13610;DHT22;6876;50.788;4.940;2023-02-15T15:20:05;12.80;99.90
13610;DHT22;6876;50.788;4.940;2023-02-15T15:26:32;12.60;99.90
13610;DHT22;6876;50.788;4.940;2023-02-15T15:29:40;12.60;99.90
13610;DHT22;6876;50.788;4.940;2023-02-15T15:32:31;12.50;99.90
13610;DHT22;6876;50.788;4.940;2023-02-15T15:35:24;12.50;99.90
13610;DHT22;6876;50.788;4.940;2023-02-15T15:38:29;12.50;99.90
13610;DHT22;6876;50.788;4.940;2023-02-15T15:41:35;12.40;99.90
13610;DHT22;6876;50.788;4.940;2023-02-15T15:48:02;12.30;99.90
13610;DHT22;6876;50.788;4.940;2023-02-15T15:50:53;12.20;99.90
13610;DHT22;6876;50.788;4.940;2023-02-15T15:53:46;12.10;99.90
13610;DHT22;6876;50.788;4.940;2023-02-15T15:56:36;12.10;99.90
13610;DHT22;6876;50.788;4.940;2023-02-15T15:59:25;12.10;99.90
13610;DHT22;6876;50.788;4.940;2023-02-15T16:02:14;12.00;99.90
13610;DHT22;6876;50.788;4.940;2023-02-15T16:05:07;12.00;99.90
13610;DHT22;6876;50.788;4.940;2023-02-15T16:07:55;11.90;99.90
13610;DHT22;6876;50.788;4.940;2023-02-15T16:10:42;11.80;99.90
13610;DHT22;6876;50.788;4.940;2023-02-15T16:13:33;11.70;99.90
13610;DHT22;6876;50.788;4.940;2023-02-15T16:16:22;11.60;99.90
13610;DHT22;6876;50.788;4.940;2023-02-15T16:19:17;11.50;99.90
13610;DHT22;6876;50.788;4.940;2023-02-15T16:22:11;11.40;99.90
13610;DHT22;6876;50.788;4.940;2023-02-15T16:25:18;11.40;99.90
13610;DHT22;6876;50.788;4.940;2023-02-15T16:28:09;11.30;99.90
13610;DHT22;6876;50.788;4.940;2023-02-15T16:31:07;11.20;99.90
13610;DHT22;6876;50.788;4.940;2023-02-15T16:33:57;11.10;99.90
13610;DHT22;6876;50.788;4.940;2023-02-15T16:36:45;10.90;99.90
13610;DHT22;6876;50.788;4.940;2023-02-15T16:39:40;10.80;99.90
13610;DHT22;6876;50.788;4.940;2023-02-15T16:42:28;10.70;99.90
13610;DHT22;6876;50.788;4.940;2023-02-15T16:45:18;10.70;99.90
13610;DHT22;6876;50.788;4.940;2023-02-15T16:48:12;10.60;99.90
13610;DHT22;6876;50.788;4.940;2023-02-15T16:51:00;10.50;99.90
13610;DHT22;6876;50.788;4.940;2023-02-15T16:53:48;10.30;99.90
13610;DHT22;6876;50.788;4.940;2023-02-15T16:56:36;10.30;99.90
13610;DHT22;6876;50.788;4.940;2023-02-15T16:59:35;10.30;99.90
13610;DHT22;6876;50.788;4.940;2023-02-15T17:02:27;10.20;99.90
13610;DHT22;6876;50.788;4.940;2023-02-15T17:05:18;10.10;99.90
13610;DHT22;6876;50.788;4.940;2023-02-15T17:08:14;10.10;99.90
13610;DHT22;6876;50.788;4.940;2023-02-15T17:11:15;10.00;99.90
13610;DHT22;6876;50.788;4.940;2023-02-15T17:14:22;9.90;99.90
13610;DHT22;6876;50.788;4.940;2023-02-15T17:17:14;9.80;99.90
13610;DHT22;6876;50.788;4.940;2023-02-15T17:20:02;9.70;99.90
13610;DHT22;6876;50.788;4.940;2023-02-15T17:22:51;9.60;99.90
13610;DHT22;6876;50.788;4.940;2023-02-15T17:25:40;9.50;99.90
13610;DHT22;6876;50.788;4.940;2023-02-15T17:28:30;9.50;99.90
13610;DHT22;6876;50.788;4.940;2023-02-15T17:31:19;9.50;99.90
13610;DHT22;6876;50.788;4.940;2023-02-15T17:37:45;9.20;99.90
13610;DHT22;6876;50.788;4.940;2023-02-15T17:40:34;9.20;99.90
13610;DHT22;6876;50.788;4.940;2023-02-15T17:43:23;9.10;99.90
13610;DHT22;6876;50.788;4.940;2023-02-15T17:46:10;9.10;99.90
13610;DHT22;6876;50.788;4.940;2023-02-15T17:48:59;9.00;99.90
13610;DHT22;6876;50.788;4.940;2023-02-15T17:51:47;9.00;99.90
13610;DHT22;6876;50.788;4.940;2023-02-15T17:54:35;8.90;99.90
13610;DHT22;6876;50.788;4.940;2023-02-15T17:57:41;8.90;99.90
13610;DHT22;6876;50.788;4.940;2023-02-15T18:00:29;8.80;99.90
13610;DHT22;6876;50.788;4.940;2023-02-15T18:03:40;8.70;99.90
13610;DHT22;6876;50.788;4.940;2023-02-15T18:06:46;8.60;99.90
13610;DHT22;6876;50.788;4.940;2023-02-15T18:09:52;8.60;99.90
13610;DHT22;6876;50.788;4.940;2023-02-15T18:12:56;8.40;99.90
13610;DHT22;6876;50.788;4.940;2023-02-15T18:15:43;8.40;99.90
13610;DHT22;6876;50.788;4.940;2023-02-15T18:18:32;8.30;99.90
13610;DHT22;6876;50.788;4.940;2023-02-15T18:21:20;8.30;99.90
13610;DHT22;6876;50.788;4.940;2023-02-15T18:24:14;8.30;99.90
13610;DHT22;6876;50.788;4.940;2023-02-15T18:27:04;8.30;99.90
13610;DHT22;6876;50.788;4.940;2023-02-15T18:29:51;8.30;99.90
13610;DHT22;6876;50.788;4.940;2023-02-15T18:32:39;8.20;99.90
13610;DHT22;6876;50.788;4.940;2023-02-15T18:35:29;8.10;99.90
13610;DHT22;6876;50.788;4.940;2023-02-15T18:38:17;8.10;99.90
13610;DHT22;6876;50.788;4.940;2023-02-15T18:41:05;8.00;99.90
13610;DHT22;6876;50.788;4.940;2023-02-15T18:43:53;8.00;99.90
13610;DHT22;6876;50.788;4.940;2023-02-15T18:46:41;8.00;99.90
13610;DHT22;6876;50.788;4.940;2023-02-15T18:49:29;7.90;99.90
13610;DHT22;6876;50.788;4.940;2023-02-15T18:52:17;7.80;99.90
13610;DHT22;6876;50.788;4.940;2023-02-15T18:55:15;7.60;99.90